Lester Prairie, Minnesota
Current Conditions -  °F | °C
As of 4:54 PM on Wednesday 22 Oct 2014 (Local Time) from KGYL Reporting Station
Scattered Clouds Scattered Clouds  
Wind Chill: 63°   Ceiling: Unl
Heat Index: 63°   Visibility: 10mi
Dew Point: 46°   Wind: 17mph
Humidity: 55%   Direction: 140°SE
Pressure: 29.99"   Gusts: 23mph
Location:  44.88°N, 94.04°W
Report Text: KGYL 222154Z AUTO 14015G20KT 10SM SCT070 17/08 A2999 RMK AO2 T01710079
Loading
Personal Weather Stations






























Interactive Weather Map
Tropical Storm Tracking
New forecast layout! Learn more

10-Day Weather Forecast

Advertisements
Track Severe Weather on mobile